sensor_id;sensor_type;location;lat;lon;timestamp;temperature;humidity
18335;DHT22;9293;49.524;10.964;2023-02-03T00:01:16;5.70;99.90
18335;DHT22;9293;49.524;10.964;2023-02-03T00:03:46;5.70;99.90
18335;DHT22;9293;49.524;10.964;2023-02-03T00:06:14;5.70;99.90
18335;DHT22;9293;49.524;10.964;2023-02-03T00:08:43;5.70;99.90
18335;DHT22;9293;49.524;10.964;2023-02-03T00:11:11;5.70;99.90
18335;DHT22;9293;49.524;10.964;2023-02-03T00:13:39;5.70;99.90
18335;DHT22;9293;49.524;10.964;2023-02-03T00:16:07;5.70;99.90
18335;DHT22;9293;49.524;10.964;2023-02-03T00:18:35;5.70;99.90
18335;DHT22;9293;49.524;10.964;2023-02-03T00:21:03;5.70;99.90
18335;DHT22;9293;49.524;10.964;2023-02-03T00:23:31;5.60;99.90
18335;DHT22;9293;49.524;10.964;2023-02-03T00:26:12;5.70;99.90
18335;DHT22;9293;49.524;10.964;2023-02-03T00:28:41;5.60;99.90
18335;DHT22;9293;49.524;10.964;2023-02-03T00:31:18;5.60;99.90
18335;DHT22;9293;49.524;10.964;2023-02-03T00:33:47;5.70;99.90
18335;DHT22;9293;49.524;10.964;2023-02-03T00:36:20;5.70;99.90
18335;DHT22;9293;49.524;10.964;2023-02-03T00:38:49;5.60;99.90
18335;DHT22;9293;49.524;10.964;2023-02-03T00:41:18;5.60;99.90
18335;DHT22;9293;49.524;10.964;2023-02-03T00:43:47;5.60;99.90
18335;DHT22;9293;49.524;10.964;2023-02-03T00:46:16;5.60;99.90
18335;DHT22;9293;49.524;10.964;2023-02-03T00:48:44;5.60;99.90
18335;DHT22;9293;49.524;10.964;2023-02-03T00:51:12;5.60;99.90
18335;DHT22;9293;49.524;10.964;2023-02-03T00:53:39;5.70;99.90
18335;DHT22;9293;49.524;10.964;2023-02-03T00:56:07;5.70;99.90
18335;DHT22;9293;49.524;10.964;2023-02-03T00:58:39;5.70;99.90
18335;DHT22;9293;49.524;10.964;2023-02-03T01:01:07;5.70;99.90
18335;DHT22;9293;49.524;10.964;2023-02-03T01:03:38;5.70;99.90
18335;DHT22;9293;49.524;10.964;2023-02-03T01:06:15;5.70;99.90
18335;DHT22;9293;49.524;10.964;2023-02-03T01:08:44;5.70;99.90
18335;DHT22;9293;49.524;10.964;2023-02-03T01:11:15;5.70;99.90
18335;DHT22;9293;49.524;10.964;2023-02-03T01:13:43;5.70;99.90
18335;DHT22;9293;49.524;10.964;2023-02-03T01:16:14;5.60;99.90
18335;DHT22;9293;49.524;10.964;2023-02-03T01:18:42;5.60;99.90
18335;DHT22;9293;49.524;10.964;2023-02-03T01:21:13;5.60;99.90
18335;DHT22;9293;49.524;10.964;2023-02-03T01:23:41;5.70;99.90
18335;DHT22;9293;49.524;10.964;2023-02-03T01:26:15;5.60;99.90
18335;DHT22;9293;49.524;10.964;2023-02-03T01:28:49;5.70;99.90
18335;DHT22;9293;49.524;10.964;2023-02-03T01:31:23;5.70;99.90
18335;DHT22;9293;49.524;10.964;2023-02-03T01:33:53;5.70;99.90
18335;DHT22;9293;49.524;10.964;2023-02-03T01:36:24;5.70;99.90
18335;DHT22;9293;49.524;10.964;2023-02-03T01:38:52;5.70;99.90
18335;DHT22;9293;49.524;10.964;2023-02-03T01:41:26;5.70;99.90
18335;DHT22;9293;49.524;10.964;2023-02-03T01:43:56;5.70;99.90
18335;DHT22;9293;49.524;10.964;2023-02-03T01:46:42;5.70;99.90
18335;DHT22;9293;49.524;10.964;2023-02-03T01:49:16;5.70;99.90
18335;DHT22;9293;49.524;10.964;2023-02-03T01:51:46;5.70;99.90
18335;DHT22;9293;49.524;10.964;2023-02-03T01:54:17;5.70;99.90
18335;DHT22;9293;49.524;10.964;2023-02-03T01:56:53;5.70;99.90
18335;DHT22;9293;49.524;10.964;2023-02-03T01:59:23;5.70;99.90
18335;DHT22;9293;49.524;10.964;2023-02-03T02:01:52;5.70;99.90
18335;DHT22;9293;49.524;10.964;2023-02-03T02:04:25;5.70;99.90
18335;DHT22;9293;49.524;10.964;2023-02-03T02:06:55;5.70;99.90
18335;DHT22;9293;49.524;10.964;2023-02-03T02:09:25;5.70;99.90
18335;DHT22;9293;49.524;10.964;2023-02-03T02:11:54;5.70;99.90
18335;DHT22;9293;49.524;10.964;2023-02-03T02:14:22;5.70;99.90
18335;DHT22;9293;49.524;10.964;2023-02-03T02:17:00;5.70;99.90
18335;DHT22;9293;49.524;10.964;2023-02-03T02:22:54;5.70;99.90
18335;DHT22;9293;49.524;10.964;2023-02-03T02:34:08;5.70;99.90
18335;DHT22;9293;49.524;10.964;2023-02-03T02:36:57;5.70;99.90
18335;DHT22;9293;49.524;10.964;2023-02-03T02:45:05;5.70;99.90
18335;DHT22;9293;49.524;10.964;2023-02-03T02:47:35;5.70;99.90
18335;DHT22;9293;49.524;10.964;2023-02-03T02:50:10;5.70;99.90
18335;DHT22;9293;49.524;10.964;2023-02-03T02:52:54;5.70;99.90
18335;DHT22;9293;49.524;10.964;2023-02-03T02:55:27;5.80;99.90
18335;DHT22;9293;49.524;10.964;2023-02-03T02:58:05;5.80;99.90
18335;DHT22;9293;49.524;10.964;2023-02-03T03:00:35;5.80;99.90
18335;DHT22;9293;49.524;10.964;2023-02-03T03:03:23;5.80;99.90
18335;DHT22;9293;49.524;10.964;2023-02-03T03:06:03;5.80;99.90
18335;DHT22;9293;49.524;10.964;2023-02-03T03:11:13;5.80;99.90
18335;DHT22;9293;49.524;10.964;2023-02-03T03:13:46;5.90;99.90
18335;DHT22;9293;49.524;10.964;2023-02-03T03:16:17;5.80;99.90
18335;DHT22;9293;49.524;10.964;2023-02-03T03:18:55;5.80;99.90
18335;DHT22;9293;49.524;10.964;2023-02-03T03:21:33;5.80;99.90
18335;DHT22;9293;49.524;10.964;2023-02-03T03:24:07;5.80;99.90
18335;DHT22;9293;49.524;10.964;2023-02-03T03:29:52;5.90;99.90
18335;DHT22;9293;49.524;10.964;2023-02-03T03:32:21;5.90;99.90
18335;DHT22;9293;49.524;10.964;2023-02-03T03:34:50;5.90;99.90
18335;DHT22;9293;49.524;10.964;2023-02-03T03:39:59;5.90;99.90
18335;DHT22;9293;49.524;10.964;2023-02-03T03:45:42;5.90;99.90
18335;DHT22;9293;49.524;10.964;2023-02-03T03:48:20;5.90;99.90
18335;DHT22;9293;49.524;10.964;2023-02-03T03:51:02;5.90;99.90
18335;DHT22;9293;49.524;10.964;2023-02-03T03:53:34;6.00;99.90
18335;DHT22;9293;49.524;10.964;2023-02-03T03:56:05;5.90;99.90
18335;DHT22;9293;49.524;10.964;2023-02-03T03:58:36;5.90;99.90
18335;DHT22;9293;49.524;10.964;2023-02-03T04:01:05;5.90;99.90
18335;DHT22;9293;49.524;10.964;2023-02-03T04:03:38;6.00;99.90
18335;DHT22;9293;49.524;10.964;2023-02-03T04:06:11;5.90;99.90
18335;DHT22;9293;49.524;10.964;2023-02-03T04:08:42;5.90;99.90
18335;DHT22;9293;49.524;10.964;2023-02-03T04:11:10;6.00;99.90
18335;DHT22;9293;49.524;10.964;2023-02-03T04:13:58;5.90;99.90
18335;DHT22;9293;49.524;10.964;2023-02-03T04:16:26;5.90;99.90
18335;DHT22;9293;49.524;10.964;2023-02-03T04:18:54;5.90;99.90
18335;DHT22;9293;49.524;10.964;2023-02-03T04:21:23;5.90;99.90
18335;DHT22;9293;49.524;10.964;2023-02-03T04:23:51;5.90;99.90
18335;DHT22;9293;49.524;10.964;2023-02-03T04:26:19;5.90;99.90
18335;DHT22;9293;49.524;10.964;2023-02-03T04:28:47;6.00;99.90
18335;DHT22;9293;49.524;10.964;2023-02-03T04:31:15;6.00;99.90
18335;DHT22;9293;49.524;10.964;2023-02-03T04:33:43;6.00;99.90
18335;DHT22;9293;49.524;10.964;2023-02-03T04:36:11;6.00;99.90
18335;DHT22;9293;49.524;10.964;2023-02-03T04:38:39;6.00;99.90
18335;DHT22;9293;49.524;10.964;2023-02-03T04:41:07;6.00;99.90
18335;DHT22;9293;49.524;10.964;2023-02-03T04:43:35;6.00;99.90
18335;DHT22;9293;49.524;10.964;2023-02-03T04:46:03;6.00;99.90
18335;DHT22;9293;49.524;10.964;2023-02-03T04:48:31;6.00;99.90
18335;DHT22;9293;49.524;10.964;2023-02-03T04:51:03;6.00;99.90
18335;DHT22;9293;49.524;10.964;2023-02-03T04:53:33;6.00;99.90
18335;DHT22;9293;49.524;10.964;2023-02-03T04:56:01;6.00;99.90
18335;DHT22;9293;49.524;10.964;2023-02-03T04:58:29;6.00;99.90
18335;DHT22;9293;49.524;10.964;2023-02-03T05:00:57;6.00;99.90
18335;DHT22;9293;49.524;10.964;2023-02-03T05:03:25;6.00;99.90
18335;DHT22;9293;49.524;10.964;2023-02-03T05:05:55;6.00;99.90
18335;DHT22;9293;49.524;10.964;2023-02-03T05:08:23;6.00;99.90
18335;DHT22;9293;49.524;10.964;2023-02-03T05:10:51;6.00;99.90
18335;DHT22;9293;49.524;10.964;2023-02-03T05:13:19;6.00;99.90
18335;DHT22;9293;49.524;10.964;2023-02-03T05:15:47;6.00;99.90
18335;DHT22;9293;49.524;10.964;2023-02-03T05:18:15;6.00;99.90
18335;DHT22;9293;49.524;10.964;2023-02-03T05:20:43;6.00;99.90
18335;DHT22;9293;49.524;10.964;2023-02-03T05:23:11;6.00;99.90
18335;DHT22;9293;49.524;10.964;2023-02-03T05:25:39;6.00;99.90
18335;DHT22;9293;49.524;10.964;2023-02-03T05:28:07;6.00;99.90
18335;DHT22;9293;49.524;10.964;2023-02-03T05:30:35;6.00;99.90
18335;DHT22;9293;49.524;10.964;2023-02-03T05:33:16;6.00;99.90
18335;DHT22;9293;49.524;10.964;2023-02-03T05:35:44;6.00;99.90
18335;DHT22;9293;49.524;10.964;2023-02-03T05:38:12;5.90;99.90
18335;DHT22;9293;49.524;10.964;2023-02-03T05:40:40;6.00;99.90
18335;DHT22;9293;49.524;10.964;2023-02-03T05:43:27;6.00;99.90
18335;DHT22;9293;49.524;10.964;2023-02-03T05:45:59;5.90;99.90
18335;DHT22;9293;49.524;10.964;2023-02-03T05:48:27;6.00;99.90
18335;DHT22;9293;49.524;10.964;2023-02-03T05:50:56;5.90;99.90
18335;DHT22;9293;49.524;10.964;2023-02-03T05:53:24;5.90;99.90
18335;DHT22;9293;49.524;10.964;2023-02-03T05:55:53;5.90;99.90
18335;DHT22;9293;49.524;10.964;2023-02-03T05:58:21;5.90;99.90
18335;DHT22;9293;49.524;10.964;2023-02-03T06:00:49;5.90;99.90
18335;DHT22;9293;49.524;10.964;2023-02-03T06:03:17;5.90;99.90
18335;DHT22;9293;49.524;10.964;2023-02-03T06:05:44;5.90;99.90
18335;DHT22;9293;49.524;10.964;2023-02-03T06:08:12;6.00;99.90
18335;DHT22;9293;49.524;10.964;2023-02-03T06:10:40;5.90;99.90
18335;DHT22;9293;49.524;10.964;2023-02-03T06:13:14;5.90;99.90
18335;DHT22;9293;49.524;10.964;2023-02-03T06:15:42;5.90;99.90
18335;DHT22;9293;49.524;10.964;2023-02-03T06:18:10;5.90;99.90
18335;DHT22;9293;49.524;10.964;2023-02-03T06:20:38;5.90;99.90
18335;DHT22;9293;49.524;10.964;2023-02-03T06:23:06;5.90;99.90
18335;DHT22;9293;49.524;10.964;2023-02-03T06:25:35;5.90;99.90
18335;DHT22;9293;49.524;10.964;2023-02-03T06:28:03;5.90;99.90
18335;DHT22;9293;49.524;10.964;2023-02-03T06:30:31;5.90;99.90
18335;DHT22;9293;49.524;10.964;2023-02-03T06:32:59;5.80;99.90
18335;DHT22;9293;49.524;10.964;2023-02-03T06:35:27;5.90;99.90
18335;DHT22;9293;49.524;10.964;2023-02-03T06:37:55;5.90;99.90
18335;DHT22;9293;49.524;10.964;2023-02-03T06:40:23;5.90;99.90
18335;DHT22;9293;49.524;10.964;2023-02-03T06:42:52;5.90;99.90
18335;DHT22;9293;49.524;10.964;2023-02-03T06:45:20;5.90;99.90
18335;DHT22;9293;49.524;10.964;2023-02-03T06:47:48;5.90;99.90
18335;DHT22;9293;49.524;10.964;2023-02-03T06:50:18;5.90;99.90
18335;DHT22;9293;49.524;10.964;2023-02-03T06:52:48;5.90;99.90
18335;DHT22;9293;49.524;10.964;2023-02-03T06:55:19;5.90;99.90
18335;DHT22;9293;49.524;10.964;2023-02-03T06:57:48;5.90;99.90
18335;DHT22;9293;49.524;10.964;2023-02-03T07:00:17;6.00;99.90
18335;DHT22;9293;49.524;10.964;2023-02-03T07:02:45;6.00;99.90
18335;DHT22;9293;49.524;10.964;2023-02-03T07:05:13;6.00;99.90
18335;DHT22;9293;49.524;10.964;2023-02-03T07:07:41;6.00;99.90
18335;DHT22;9293;49.524;10.964;2023-02-03T07:10:09;6.00;99.90
18335;DHT22;9293;49.524;10.964;2023-02-03T07:12:37;6.00;99.90
18335;DHT22;9293;49.524;10.964;2023-02-03T07:15:06;6.10;99.90
18335;DHT22;9293;49.524;10.964;2023-02-03T07:17:34;6.10;99.90
18335;DHT22;9293;49.524;10.964;2023-02-03T07:20:02;6.10;99.90
18335;DHT22;9293;49.524;10.964;2023-02-03T07:22:31;6.10;99.90
18335;DHT22;9293;49.524;10.964;2023-02-03T07:24:59;6.10;99.90
18335;DHT22;9293;49.524;10.964;2023-02-03T07:27:27;6.10;99.90
18335;DHT22;9293;49.524;10.964;2023-02-03T07:29:56;6.10;99.90
18335;DHT22;9293;49.524;10.964;2023-02-03T07:32:24;6.10;99.90
18335;DHT22;9293;49.524;10.964;2023-02-03T07:34:52;6.10;99.90
18335;DHT22;9293;49.524;10.964;2023-02-03T07:37:20;6.10;99.90
18335;DHT22;9293;49.524;10.964;2023-02-03T07:39:55;6.10;99.90
18335;DHT22;9293;49.524;10.964;2023-02-03T07:42:23;6.10;99.90
18335;DHT22;9293;49.524;10.964;2023-02-03T07:44:51;6.20;99.90
18335;DHT22;9293;49.524;10.964;2023-02-03T07:47:19;6.20;99.90
18335;DHT22;9293;49.524;10.964;2023-02-03T07:49:47;6.20;99.90
18335;DHT22;9293;49.524;10.964;2023-02-03T07:52:15;6.20;99.90
18335;DHT22;9293;49.524;10.964;2023-02-03T07:54:43;6.20;99.90
18335;DHT22;9293;49.524;10.964;2023-02-03T07:57:11;6.20;99.90
18335;DHT22;9293;49.524;10.964;2023-02-03T07:59:39;6.20;99.90
18335;DHT22;9293;49.524;10.964;2023-02-03T08:02:08;6.20;99.90
18335;DHT22;9293;49.524;10.964;2023-02-03T08:04:38;6.20;99.90
18335;DHT22;9293;49.524;10.964;2023-02-03T08:07:06;6.20;99.90
18335;DHT22;9293;49.524;10.964;2023-02-03T08:09:34;6.20;99.90
18335;DHT22;9293;49.524;10.964;2023-02-03T08:12:02;6.30;99.90
18335;DHT22;9293;49.524;10.964;2023-02-03T08:14:30;6.30;99.90
18335;DHT22;9293;49.524;10.964;2023-02-03T08:16:58;6.30;99.90
18335;DHT22;9293;49.524;10.964;2023-02-03T08:19:26;6.30;99.90
18335;DHT22;9293;49.524;10.964;2023-02-03T08:21:54;6.30;99.90
18335;DHT22;9293;49.524;10.964;2023-02-03T08:24:22;6.40;99.90
18335;DHT22;9293;49.524;10.964;2023-02-03T08:26:50;6.40;99.90
18335;DHT22;9293;49.524;10.964;2023-02-03T08:29:19;6.40;99.90
18335;DHT22;9293;49.524;10.964;2023-02-03T08:31:47;6.40;99.90
18335;DHT22;9293;49.524;10.964;2023-02-03T08:34:16;6.40;99.90
18335;DHT22;9293;49.524;10.964;2023-02-03T08:36:43;6.40;99.90
18335;DHT22;9293;49.524;10.964;2023-02-03T08:39:11;6.40;99.90
18335;DHT22;9293;49.524;10.964;2023-02-03T08:41:39;6.40;99.90
18335;DHT22;9293;49.524;10.964;2023-02-03T08:44:07;6.40;99.90
18335;DHT22;9293;49.524;10.964;2023-02-03T08:46:35;6.40;99.90
18335;DHT22;9293;49.524;10.964;2023-02-03T08:49:04;6.40;99.90
18335;DHT22;9293;49.524;10.964;2023-02-03T08:51:36;6.40;99.90
18335;DHT22;9293;49.524;10.964;2023-02-03T08:54:13;6.40;99.90
18335;DHT22;9293;49.524;10.964;2023-02-03T08:56:41;6.40;99.90
18335;DHT22;9293;49.524;10.964;2023-02-03T08:59:11;6.40;99.90
18335;DHT22;9293;49.524;10.964;2023-02-03T09:01:39;6.40;99.90
18335;DHT22;9293;49.524;10.964;2023-02-03T09:04:07;6.40;99.90
18335;DHT22;9293;49.524;10.964;2023-02-03T09:06:37;6.40;99.90
18335;DHT22;9293;49.524;10.964;2023-02-03T09:09:06;6.40;99.90
18335;DHT22;9293;49.524;10.964;2023-02-03T09:11:34;6.40;99.90
18335;DHT22;9293;49.524;10.964;2023-02-03T09:14:01;6.50;99.90
18335;DHT22;9293;49.524;10.964;2023-02-03T09:16:33;6.50;99.90
18335;DHT22;9293;49.524;10.964;2023-02-03T09:19:01;6.50;99.90
18335;DHT22;9293;49.524;10.964;2023-02-03T09:21:29;6.50;99.90
18335;DHT22;9293;49.524;10.964;2023-02-03T09:24:07;6.50;99.90
18335;DHT22;9293;49.524;10.964;2023-02-03T09:26:35;6.50;99.90
18335;DHT22;9293;49.524;10.964;2023-02-03T09:29:03;6.60;99.90
18335;DHT22;9293;49.524;10.964;2023-02-03T09:31:31;6.60;99.90
18335;DHT22;9293;49.524;10.964;2023-02-03T09:33:59;6.60;99.90
18335;DHT22;9293;49.524;10.964;2023-02-03T09:36:27;6.70;99.90
18335;DHT22;9293;49.524;10.964;2023-02-03T09:38:56;6.70;99.90
18335;DHT22;9293;49.524;10.964;2023-02-03T09:44:49;6.70;99.90
18335;DHT22;9293;49.524;10.964;2023-02-03T09:47:27;6.70;99.90
18335;DHT22;9293;49.524;10.964;2023-02-03T09:50:01;6.70;99.90
18335;DHT22;9293;49.524;10.964;2023-02-03T09:52:32;6.70;99.90
18335;DHT22;9293;49.524;10.964;2023-02-03T09:55:38;6.70;99.90
18335;DHT22;9293;49.524;10.964;2023-02-03T09:58:11;6.80;99.90
18335;DHT22;9293;49.524;10.964;2023-02-03T10:01:02;6.80;99.90
18335;DHT22;9293;49.524;10.964;2023-02-03T10:03:53;6.80;99.90
18335;DHT22;9293;49.524;10.964;2023-02-03T10:06:43;6.90;99.90
18335;DHT22;9293;49.524;10.964;2023-02-03T10:09:21;6.90;99.90
18335;DHT22;9293;49.524;10.964;2023-02-03T10:17:58;7.10;99.90
18335;DHT22;9293;49.524;10.964;2023-02-03T10:20:34;7.10;99.90
18335;DHT22;9293;49.524;10.964;2023-02-03T10:23:10;7.20;99.90
18335;DHT22;9293;49.524;10.964;2023-02-03T10:25:42;7.20;99.90
18335;DHT22;9293;49.524;10.964;2023-02-03T10:28:20;7.20;99.90
18335;DHT22;9293;49.524;10.964;2023-02-03T10:30:58;7.20;99.90
18335;DHT22;9293;49.524;10.964;2023-02-03T10:33:29;7.20;99.90
18335;DHT22;9293;49.524;10.964;2023-02-03T10:38:53;7.30;99.90
18335;DHT22;9293;49.524;10.964;2023-02-03T10:41:24;7.30;99.90
18335;DHT22;9293;49.524;10.964;2023-02-03T10:43:55;7.20;99.90
18335;DHT22;9293;49.524;10.964;2023-02-03T10:46:27;7.30;99.90
18335;DHT22;9293;49.524;10.964;2023-02-03T10:48:56;7.30;99.90
18335;DHT22;9293;49.524;10.964;2023-02-03T10:51:27;7.30;99.90
18335;DHT22;9293;49.524;10.964;2023-02-03T10:53:59;7.40;99.90
18335;DHT22;9293;49.524;10.964;2023-02-03T10:56:34;7.40;99.90
18335;DHT22;9293;49.524;10.964;2023-02-03T10:59:05;7.40;99.90
18335;DHT22;9293;49.524;10.964;2023-02-03T11:01:46;7.40;99.90
18335;DHT22;9293;49.524;10.964;2023-02-03T11:04:27;7.50;99.90
18335;DHT22;9293;49.524;10.964;2023-02-03T11:07:01;7.40;99.90
18335;DHT22;9293;49.524;10.964;2023-02-03T11:09:37;7.40;99.90
18335;DHT22;9293;49.524;10.964;2023-02-03T11:12:14;7.40;99.90
18335;DHT22;9293;49.524;10.964;2023-02-03T11:14:49;7.40;99.90
18335;DHT22;9293;49.524;10.964;2023-02-03T11:17:22;7.30;99.90
18335;DHT22;9293;49.524;10.964;2023-02-03T11:19:58;7.30;99.90
18335;DHT22;9293;49.524;10.964;2023-02-03T11:22:38;7.30;99.90
18335;DHT22;9293;49.524;10.964;2023-02-03T11:25:36;7.20;99.90
18335;DHT22;9293;49.524;10.964;2023-02-03T11:28:06;7.30;99.90
18335;DHT22;9293;49.524;10.964;2023-02-03T11:30:37;7.30;99.90
18335;DHT22;9293;49.524;10.964;2023-02-03T11:33:18;7.30;99.90
18335;DHT22;9293;49.524;10.964;2023-02-03T11:35:57;7.30;99.90
18335;DHT22;9293;49.524;10.964;2023-02-03T11:38:34;7.30;99.90
18335;DHT22;9293;49.524;10.964;2023-02-03T11:41:15;7.30;99.90
18335;DHT22;9293;49.524;10.964;2023-02-03T11:43:45;7.30;99.90
18335;DHT22;9293;49.524;10.964;2023-02-03T11:46:14;7.30;99.90
18335;DHT22;9293;49.524;10.964;2023-02-03T11:49:11;7.30;99.90
18335;DHT22;9293;49.524;10.964;2023-02-03T11:52:13;7.30;99.90
18335;DHT22;9293;49.524;10.964;2023-02-03T12:00:44;7.30;99.90
18335;DHT22;9293;49.524;10.964;2023-02-03T12:12:17;7.30;99.90
18335;DHT22;9293;49.524;10.964;2023-02-03T12:20:53;7.30;99.90
18335;DHT22;9293;49.524;10.964;2023-02-03T12:26:24;7.30;99.90
18335;DHT22;9293;49.524;10.964;2023-02-03T12:35:47;7.30;99.90
18335;DHT22;9293;49.524;10.964;2023-02-03T12:38:02;7.30;99.90
18335;DHT22;9293;49.524;10.964;2023-02-03T12:40:48;7.20;99.90
18335;DHT22;9293;49.524;10.964;2023-02-03T12:43:29;7.20;99.90
18335;DHT22;9293;49.524;10.964;2023-02-03T12:48:47;7.20;99.90
18335;DHT22;9293;49.524;10.964;2023-02-03T12:51:45;7.20;99.90
18335;DHT22;9293;49.524;10.964;2023-02-03T12:56:56;7.10;99.90
18335;DHT22;9293;49.524;10.964;2023-02-03T12:59:27;7.10;99.90
18335;DHT22;9293;49.524;10.964;2023-02-03T13:02:13;7.10;99.90
18335;DHT22;9293;49.524;10.964;2023-02-03T13:04:55;7.10;99.90
18335;DHT22;9293;49.524;10.964;2023-02-03T13:07:31;7.10;99.90
18335;DHT22;9293;49.524;10.964;2023-02-03T13:10:28;7.00;99.90
18335;DHT22;9293;49.524;10.964;2023-02-03T13:12:59;7.00;99.90
18335;DHT22;9293;49.524;10.964;2023-02-03T13:15:34;7.00;99.90
18335;DHT22;9293;49.524;10.964;2023-02-03T13:18:18;7.00;99.90
18335;DHT22;9293;49.524;10.964;2023-02-03T13:20:53;7.00;99.90
18335;DHT22;9293;49.524;10.964;2023-02-03T13:23:22;7.00;99.90
18335;DHT22;9293;49.524;10.964;2023-02-03T13:26:19;7.00;99.90
18335;DHT22;9293;49.524;10.964;2023-02-03T13:34:35;7.00;99.90
18335;DHT22;9293;49.524;10.964;2023-02-03T13:37:19;7.00;99.90
18335;DHT22;9293;49.524;10.964;2023-02-03T13:40:16;7.00;99.90
18335;DHT22;9293;49.524;10.964;2023-02-03T13:42:52;7.00;99.90
18335;DHT22;9293;49.524;10.964;2023-02-03T13:45:26;7.00;99.90
18335;DHT22;9293;49.524;10.964;2023-02-03T13:48:07;6.90;99.90
18335;DHT22;9293;49.524;10.964;2023-02-03T13:50:36;6.90;99.90
18335;DHT22;9293;49.524;10.964;2023-02-03T13:53:05;6.90;99.90
18335;DHT22;9293;49.524;10.964;2023-02-03T13:55:41;6.90;99.90
18335;DHT22;9293;49.524;10.964;2023-02-03T13:58:27;6.80;99.90
18335;DHT22;9293;49.524;10.964;2023-02-03T14:05:58;6.80;99.90
18335;DHT22;9293;49.524;10.964;2023-02-03T14:16:37;6.90;99.90
18335;DHT22;9293;49.524;10.964;2023-02-03T14:19:10;6.90;99.90
18335;DHT22;9293;49.524;10.964;2023-02-03T14:22:00;6.90;99.90
18335;DHT22;9293;49.524;10.964;2023-02-03T14:24:36;6.90;99.90
18335;DHT22;9293;49.524;10.964;2023-02-03T14:27:15;6.90;99.90
18335;DHT22;9293;49.524;10.964;2023-02-03T14:29:45;6.90;99.90
18335;DHT22;9293;49.524;10.964;2023-02-03T14:32:48;6.80;99.90
18335;DHT22;9293;49.524;10.964;2023-02-03T14:35:20;6.80;99.90
18335;DHT22;9293;49.524;10.964;2023-02-03T14:38:13;6.80;99.90
18335;DHT22;9293;49.524;10.964;2023-02-03T14:40:55;6.80;99.90
18335;DHT22;9293;49.524;10.964;2023-02-03T14:43:30;6.80;99.90
18335;DHT22;9293;49.524;10.964;2023-02-03T14:51:15;6.70;99.90
18335;DHT22;9293;49.524;10.964;2023-02-03T15:02:16;6.70;99.90
18335;DHT22;9293;49.524;10.964;2023-02-03T15:04:46;6.70;99.90
18335;DHT22;9293;49.524;10.964;2023-02-03T15:07:35;6.70;99.90
18335;DHT22;9293;49.524;10.964;2023-02-03T15:10:28;6.70;99.90
18335;DHT22;9293;49.524;10.964;2023-02-03T15:12:57;6.70;99.90
18335;DHT22;9293;49.524;10.964;2023-02-03T15:15:27;6.70;99.90
18335;DHT22;9293;49.524;10.964;2023-02-03T15:17:58;6.70;99.90
18335;DHT22;9293;49.524;10.964;2023-02-03T15:20:33;6.70;99.90
18335;DHT22;9293;49.524;10.964;2023-02-03T15:23:26;6.70;99.90
18335;DHT22;9293;49.524;10.964;2023-02-03T15:26:00;6.70;99.90
18335;DHT22;9293;49.524;10.964;2023-02-03T15:28:32;6.70;99.90
18335;DHT22;9293;49.524;10.964;2023-02-03T15:31:20;6.70;99.90
18335;DHT22;9293;49.524;10.964;2023-02-03T15:33:52;6.70;99.90
18335;DHT22;9293;49.524;10.964;2023-02-03T15:36:26;6.60;99.90
18335;DHT22;9293;49.524;10.964;2023-02-03T15:39:06;6.60;99.90
18335;DHT22;9293;49.524;10.964;2023-02-03T15:41:35;6.60;99.90
18335;DHT22;9293;49.524;10.964;2023-02-03T15:44:09;6.60;99.90
18335;DHT22;9293;49.524;10.964;2023-02-03T15:46:49;6.60;99.90
18335;DHT22;9293;49.524;10.964;2023-02-03T15:49:27;6.60;99.90
18335;DHT22;9293;49.524;10.964;2023-02-03T15:52:05;6.60;99.90
18335;DHT22;9293;49.524;10.964;2023-02-03T15:54:38;6.60;99.90
18335;DHT22;9293;49.524;10.964;2023-02-03T15:57:30;6.60;99.90
18335;DHT22;9293;49.524;10.964;2023-02-03T16:00:09;6.70;99.90
18335;DHT22;9293;49.524;10.964;2023-02-03T16:02:43;6.70;99.90
18335;DHT22;9293;49.524;10.964;2023-02-03T16:05:34;6.60;99.90
18335;DHT22;9293;49.524;10.964;2023-02-03T16:10:52;6.70;99.90
18335;DHT22;9293;49.524;10.964;2023-02-03T16:13:26;6.70;99.90
18335;DHT22;9293;49.524;10.964;2023-02-03T16:16:06;6.70;99.90
18335;DHT22;9293;49.524;10.964;2023-02-03T16:18:40;6.60;99.90
18335;DHT22;9293;49.524;10.964;2023-02-03T16:22:03;6.60;99.90
18335;DHT22;9293;49.524;10.964;2023-02-03T16:33:03;6.70;99.90
18335;DHT22;9293;49.524;10.964;2023-02-03T16:35:53;6.70;99.90
18335;DHT22;9293;49.524;10.964;2023-02-03T16:38:44;6.70;99.90
18335;DHT22;9293;49.524;10.964;2023-02-03T16:41:31;6.80;99.90
18335;DHT22;9293;49.524;10.964;2023-02-03T16:44:18;6.70;99.90
18335;DHT22;9293;49.524;10.964;2023-02-03T16:47:20;6.70;99.90
18335;DHT22;9293;49.524;10.964;2023-02-03T16:50:12;6.70;99.90
18335;DHT22;9293;49.524;10.964;2023-02-03T16:53:10;6.70;99.90
18335;DHT22;9293;49.524;10.964;2023-02-03T16:55:40;6.70;99.90
18335;DHT22;9293;49.524;10.964;2023-02-03T17:02:08;6.70;99.90
18335;DHT22;9293;49.524;10.964;2023-02-03T17:05:11;6.80;99.90
18335;DHT22;9293;49.524;10.964;2023-02-03T17:08:05;6.70;99.90
18335;DHT22;9293;49.524;10.964;2023-02-03T17:14:02;6.70;99.90
18335;DHT22;9293;49.524;10.964;2023-02-03T17:20:52;6.80;99.90
18335;DHT22;9293;49.524;10.964;2023-02-03T17:23:24;6.80;99.90
18335;DHT22;9293;49.524;10.964;2023-02-03T17:26:01;6.90;99.90
18335;DHT22;9293;49.524;10.964;2023-02-03T17:28:49;6.90;99.90
18335;DHT22;9293;49.524;10.964;2023-02-03T17:31:32;6.90;99.90
18335;DHT22;9293;49.524;10.964;2023-02-03T17:34:00;6.90;99.90
18335;DHT22;9293;49.524;10.964;2023-02-03T17:36:28;7.00;99.90
18335;DHT22;9293;49.524;10.964;2023-02-03T17:39:00;7.00;99.90
18335;DHT22;9293;49.524;10.964;2023-02-03T17:41:45;7.30;99.90
18335;DHT22;9293;49.524;10.964;2023-02-03T17:44:35;7.40;99.90
18335;DHT22;9293;49.524;10.964;2023-02-03T17:47:20;7.30;99.90
18335;DHT22;9293;49.524;10.964;2023-02-03T17:50:04;7.20;99.90
18335;DHT22;9293;49.524;10.964;2023-02-03T17:52:49;7.20;99.90
18335;DHT22;9293;49.524;10.964;2023-02-03T17:55:33;7.10;99.90
18335;DHT22;9293;49.524;10.964;2023-02-03T17:58:04;7.10;99.90
18335;DHT22;9293;49.524;10.964;2023-02-03T18:00:34;7.20;99.90
18335;DHT22;9293;49.524;10.964;2023-02-03T18:03:21;7.20;99.90
18335;DHT22;9293;49.524;10.964;2023-02-03T18:12:25;7.20;99.90
18335;DHT22;9293;49.524;10.964;2023-02-03T18:14:54;7.20;99.90
18335;DHT22;9293;49.524;10.964;2023-02-03T18:17:23;7.20;99.90
18335;DHT22;9293;49.524;10.964;2023-02-03T18:19:52;7.20;99.90
18335;DHT22;9293;49.524;10.964;2023-02-03T18:22:23;7.20;99.90
18335;DHT22;9293;49.524;10.964;2023-02-03T18:24:52;7.20;99.90
18335;DHT22;9293;49.524;10.964;2023-02-03T18:27:22;7.20;99.90
18335;DHT22;9293;49.524;10.964;2023-02-03T18:29:51;7.20;99.90
18335;DHT22;9293;49.524;10.964;2023-02-03T18:32:19;7.20;99.90
18335;DHT22;9293;49.524;10.964;2023-02-03T18:34:48;7.20;99.90
18335;DHT22;9293;49.524;10.964;2023-02-03T18:37:16;7.20;99.90
18335;DHT22;9293;49.524;10.964;2023-02-03T18:39:45;7.20;99.90
18335;DHT22;9293;49.524;10.964;2023-02-03T18:42:14;7.20;99.90
18335;DHT22;9293;49.524;10.964;2023-02-03T18:44:42;7.20;99.90